Belmont, Louisiana
Current Conditions -  °F | °C
As of 6:15 PM on Monday 20 Oct 2014 (Local Time) from KIER Reporting Station
Clear Clear  
Wind Chill: 73°   Ceiling: Unl
Heat Index: 73°   Visibility: 10mi
Dew Point: 52°   Wind: 3mph
Humidity: 47%   Direction: 30°NNE
Pressure: 30.02"   Gusts: NA
Location:  31.72°N, 93.51°W
Report Text: KIER 202315Z AUTO 03003KT 10SM CLR 23/11 A3002 RMK AO2 T02290111
Loading
Personal Weather Stations






























Interactive Weather Map
Tropical Storm Tracking
New forecast layout! Learn more

10-Day Weather Forecast

Advertisements
Track Severe Weather on mobile